Time;durP1;ratioP1;P1;durP2;ratioP2;P2;SDS_P1;SDS_P2;PMS_P1;PMS_P2;Temp;Humidity;BMP_temperature;BMP_pressure;BME280_temperature;BME280_humidity;BME280_pressure;Samples;Min_cycle;Max_cycle;Signal;HPM_P1;HPM_P2
2023/11/18 00:00:13;;;;;;;34.53;23.80;;;;;;;;;;520032;28;1033;-77
2023/11/18 00:00:29;;;;;;;32.65;23.30;;;;;;;;;;521746;28;921;-77
2023/11/18 00:00:44;;;;;;;32.03;22.90;;;;;;;;;;522399;28;1168;-77
2023/11/18 00:00:59;;;;;;;32.38;22.88;;;;;;;;;;521768;28;1318;-78
2023/11/18 00:01:15;;;;;;;32.00;22.60;;;;;;;;;;520368;28;1242;-77
2023/11/18 00:01:33;;;;;;;32.53;22.87;;;;;;;;;;521662;28;994;-77
2023/11/18 00:01:48;;;;;;;31.88;22.77;;;;;;;;;;522953;28;921;-77
2023/11/18 00:02:04;;;;;;;31.33;22.43;;;;;;;;;;525330;28;799;-78
2023/11/18 00:02:19;;;;;;;31.87;21.77;;;;;;;;;;525664;28;1099;-77
2023/11/18 00:02:34;;;;;;;32.33;21.80;;;;;;;;;;523795;28;1264;-77
2023/11/18 00:02:50;;;;;;;31.73;22.37;;;;;;;;;;521538;28;1521;-77
2023/11/18 00:03:06;;;;;;;30.58;21.67;;;;;;;;;;522402;28;1107;-77
2023/11/18 00:03:21;;;;;;;29.97;21.40;;;;;;;;;;521553;28;1152;-76
2023/11/18 00:03:36;;;;;;;29.52;21.20;;;;;;;;;;521332;28;799;-77
2023/11/18 00:03:51;;;;;;;30.43;21.13;;;;;;;;;;521724;28;989;-77
2023/11/18 00:04:15;;;;;;;29.67;20.92;;;;;;;;;;519548;28;1261;-77
2023/11/18 00:04:30;;;;;;;29.80;21.35;;;;;;;;;;521026;28;887;-77
2023/11/18 00:04:46;;;;;;;30.20;21.47;;;;;;;;;;520818;28;1294;-78
2023/11/18 00:05:01;;;;;;;29.00;20.77;;;;;;;;;;521831;28;902;-77
2023/11/18 00:05:17;;;;;;;29.23;20.95;;;;;;;;;;521587;28;1085;-78
2023/11/18 00:05:32;;;;;;;29.77;21.20;;;;;;;;;;521920;28;968;-77
2023/11/18 00:05:48;;;;;;;30.97;21.33;;;;;;;;;;521727;28;874;-77
2023/11/18 00:06:03;;;;;;;32.07;21.67;;;;;;;;;;520944;28;1164;-77
2023/11/18 00:06:18;;;;;;;30.45;21.65;;;;;;;;;;521582;28;1044;-78
2023/11/18 00:06:34;;;;;;;30.87;21.70;;;;;;;;;;522201;28;1163;-77
2023/11/18 00:06:50;;;;;;;32.08;21.73;;;;;;;;;;523715;28;913;-77
2023/11/18 00:07:06;;;;;;;30.90;21.25;;;;;;;;;;523916;28;1126;-77
2023/11/18 00:07:21;;;;;;;31.63;22.37;;;;;;;;;;523797;28;1293;-77
2023/11/18 00:07:36;;;;;;;34.63;23.10;;;;;;;;;;523199;28;1777;-77
2023/11/18 00:07:51;;;;;;;33.20;22.87;;;;;;;;;;521679;28;1260;-77
2023/11/18 00:08:07;;;;;;;30.47;22.43;;;;;;;;;;523862;28;1079;-77
2023/11/18 00:08:22;;;;;;;31.45;22.23;;;;;;;;;;521733;28;1318;-77
2023/11/18 00:08:37;;;;;;;30.93;21.83;;;;;;;;;;521272;28;1267;-77
2023/11/18 00:08:53;;;;;;;31.13;21.87;;;;;;;;;;521554;28;909;-77
2023/11/18 00:09:08;;;;;;;32.47;22.50;;;;;;;;;;521824;28;1076;-77
2023/11/18 00:09:24;;;;;;;32.57;22.50;;;;;;;;;;523661;28;1257;-77
2023/11/18 00:09:40;;;;;;;31.45;22.33;;;;;;;;;;524061;28;925;-77
2023/11/18 00:09:55;;;;;;;30.95;22.02;;;;;;;;;;524314;28;818;-77
2023/11/18 00:10:11;;;;;;;32.30;21.90;;;;;;;;;;524042;28;1357;-77
2023/11/18 00:10:26;;;;;;;33.00;21.73;;;;;;;;;;524442;28;1040;-77
2023/11/18 00:10:41;;;;;;;32.63;22.00;;;;;;;;;;526370;28;877;-77
2023/11/18 00:10:56;;;;;;;31.87;22.30;;;;;;;;;;526368;28;897;-77
2023/11/18 00:11:13;;;;;;;32.50;22.40;;;;;;;;;;526363;28;1137;-77
2023/11/18 00:11:28;;;;;;;33.40;22.65;;;;;;;;;;528644;28;838;-77
2023/11/18 00:11:43;;;;;;;33.70;22.77;;;;;;;;;;528623;28;961;-77
2023/11/18 00:11:59;;;;;;;34.63;22.73;;;;;;;;;;528656;28;877;-78
2023/11/18 00:12:14;;;;;;;35.45;23.25;;;;;;;;;;528564;28;1070;-77
2023/11/18 00:12:29;;;;;;;34.93;23.17;;;;;;;;;;526591;28;806;-77
2023/11/18 00:12:46;;;;;;;34.83;22.83;;;;;;;;;;526520;28;834;-77
2023/11/18 00:13:03;;;;;;;35.13;23.38;;;;;;;;;;526576;28;905;-76
2023/11/18 00:13:19;;;;;;;35.58;23.35;;;;;;;;;;526047;28;1279;-77
2023/11/18 00:13:34;;;;;;;34.27;22.87;;;;;;;;;;526060;28;1009;-77
2023/11/18 00:13:50;;;;;;;31.77;22.53;;;;;;;;;;526256;28;953;-78
2023/11/18 00:14:05;;;;;;;34.88;23.00;;;;;;;;;;526262;28;1131;-77
2023/11/18 00:14:21;;;;;;;38.10;23.83;;;;;;;;;;524063;28;1367;-77
2023/11/18 00:14:36;;;;;;;36.43;23.93;;;;;;;;;;523644;28;1792;-78
2023/11/18 00:14:52;;;;;;;37.88;24.45;;;;;;;;;;524123;28;819;-77
2023/11/18 00:15:11;;;;;;;37.87;24.33;;;;;;;;;;522746;28;1218;-77
2023/11/18 00:15:26;;;;;;;35.65;23.50;;;;;;;;;;524031;28;1374;-77
2023/11/18 00:15:42;;;;;;;36.43;23.90;;;;;;;;;;524102;28;1412;-77
2023/11/18 00:15:58;;;;;;;36.65;23.85;;;;;;;;;;524424;28;865;-77
2023/11/18 00:16:13;;;;;;;37.80;24.42;;;;;;;;;;522947;28;1146;-77
2023/11/18 00:16:29;;;;;;;37.83;24.67;;;;;;;;;;522067;28;842;-77
2023/11/18 00:16:45;;;;;;;37.90;24.55;;;;;;;;;;519889;28;1240;-77
2023/11/18 00:17:00;;;;;;;35.93;23.43;;;;;;;;;;520127;28;1029;-77
2023/11/18 00:17:16;;;;;;;33.60;22.38;;;;;;;;;;521993;28;1212;-77
2023/11/18 00:17:31;;;;;;;31.90;21.90;;;;;;;;;;522439;28;1163;-77
2023/11/18 00:17:47;;;;;;;32.33;22.40;;;;;;;;;;522149;28;1307;-77
2023/11/18 00:18:02;;;;;;;35.57;24.03;;;;;;;;;;522205;28;894;-76
2023/11/18 00:18:18;;;;;;;36.22;24.20;;;;;;;;;;522544;28;1195;-77
2023/11/18 00:18:34;;;;;;;34.97;23.10;;;;;;;;;;522321;28;926;-77
2023/11/18 00:18:49;;;;;;;35.33;22.80;;;;;;;;;;522462;28;815;-77
2023/11/18 00:19:05;;;;;;;33.22;22.08;;;;;;;;;;522195;28;882;-76
2023/11/18 00:19:20;;;;;;;29.63;20.23;;;;;;;;;;524152;28;838;-76
2023/11/18 00:19:36;;;;;;;28.10;19.63;;;;;;;;;;524538;28;1175;-77
2023/11/18 00:19:51;;;;;;;28.33;20.40;;;;;;;;;;526263;28;1961;-76
2023/11/18 00:20:12;;;;;;;30.70;21.73;;;;;;;;;;524014;28;1251;-77
2023/11/18 00:20:27;;;;;;;37.10;24.33;;;;;;;;;;524091;28;878;-77
2023/11/18 00:20:42;;;;;;;39.37;26.37;;;;;;;;;;524442;28;819;-77
2023/11/18 00:20:58;;;;;;;42.58;28.85;;;;;;;;;;524303;28;822;-76
2023/11/18 00:21:14;;;;;;;43.58;29.08;;;;;;;;;;524115;28;1021;-77
2023/11/18 00:21:29;;;;;;;42.43;27.97;;;;;;;;;;524956;28;814;-77
2023/11/18 00:21:44;;;;;;;38.90;26.30;;;;;;;;;;524183;28;1274;-77
2023/11/18 00:22:00;;;;;;;36.13;24.87;;;;;;;;;;522786;28;1232;-76
2023/11/18 00:22:15;;;;;;;35.17;23.90;;;;;;;;;;524160;28;1213;-77
2023/11/18 00:22:30;;;;;;;35.50;23.83;;;;;;;;;;522129;28;1286;-77
2023/11/18 00:22:45;;;;;;;35.92;23.55;;;;;;;;;;522214;28;1074;-77
2023/11/18 00:23:04;;;;;;;33.83;22.70;;;;;;;;;;522085;28;1080;-77
2023/11/18 00:23:19;;;;;;;31.85;21.55;;;;;;;;;;522872;28;1178;-77
2023/11/18 00:23:35;;;;;;;31.53;21.10;;;;;;;;;;522783;28;1608;-76
2023/11/18 00:23:51;;;;;;;32.60;21.50;;;;;;;;;;520627;28;1426;-77
2023/11/18 00:24:07;;;;;;;33.88;22.42;;;;;;;;;;522223;28;1183;-77
2023/11/18 00:24:24;;;;;;;35.25;23.75;;;;;;;;;;522357;28;1748;-77
2023/11/18 00:24:39;;;;;;;34.13;23.02;;;;;;;;;;523086;28;1234;-77
2023/11/18 00:24:55;;;;;;;32.77;22.03;;;;;;;;;;521941;28;1286;-77
2023/11/18 00:25:14;;;;;;;34.07;22.33;;;;;;;;;;521325;28;1048;-76
2023/11/18 00:25:29;;;;;;;37.65;23.75;;;;;;;;;;520113;28;997;-77
2023/11/18 00:25:45;;;;;;;36.65;23.73;;;;;;;;;;521186;28;1032;-76
2023/11/18 00:26:00;;;;;;;34.93;23.07;;;;;;;;;;522211;28;847;-77
2023/11/18 00:26:16;;;;;;;33.72;22.55;;;;;;;;;;521902;28;1147;-77
2023/11/18 00:26:31;;;;;;;31.90;21.63;;;;;;;;;;523848;28;811;-76
2023/11/18 00:26:46;;;;;;;29.03;20.33;;;;;;;;;;524272;28;1303;-77
2023/11/18 00:27:06;;;;;;;30.27;20.80;;;;;;;;;;524129;28;949;-77
2023/11/18 00:27:22;;;;;;;33.90;22.00;;;;;;;;;;524245;28;882;-76
2023/11/18 00:27:38;;;;;;;31.92;21.48;;;;;;;;;;524238;28;885;-77
2023/11/18 00:27:54;;;;;;;30.35;21.13;;;;;;;;;;521991;28;1195;-77
2023/11/18 00:28:09;;;;;;;32.33;21.90;;;;;;;;;;522500;28;1333;-77
2023/11/18 00:28:25;;;;;;;32.37;21.87;;;;;;;;;;524352;28;985;-76
2023/11/18 00:28:40;;;;;;;33.65;22.60;;;;;;;;;;523802;28;1100;-77
2023/11/18 00:28:55;;;;;;;33.60;22.67;;;;;;;;;;524304;28;977;-77
2023/11/18 00:29:11;;;;;;;30.27;20.77;;;;;;;;;;524173;28;1055;-77
2023/11/18 00:29:26;;;;;;;32.10;21.50;;;;;;;;;;524294;28;815;-76
2023/11/18 00:29:43;;;;;;;34.70;22.93;;;;;;;;;;524473;28;799;-77
2023/11/18 00:29:58;;;;;;;36.58;23.73;;;;;;;;;;526677;28;913;-77
2023/11/18 00:30:14;;;;;;;37.67;23.87;;;;;;;;;;529797;27;1125;-77
2023/11/18 00:30:29;;;;;;;36.72;23.80;;;;;;;;;;528359;28;1291;-77
2023/11/18 00:30:44;;;;;;;36.67;23.93;;;;;;;;;;528358;28;822;-77
2023/11/18 00:31:00;;;;;;;37.53;24.00;;;;;;;;;;528492;28;834;-77
2023/11/18 00:31:15;;;;;;;38.70;24.45;;;;;;;;;;526547;28;1106;-77
2023/11/18 00:31:30;;;;;;;38.50;24.37;;;;;;;;;;525450;28;1326;-77
2023/11/18 00:31:46;;;;;;;35.63;23.33;;;;;;;;;;524908;28;1325;-76
2023/11/18 00:32:02;;;;;;;31.98;22.42;;;;;;;;;;524184;28;818;-77
2023/11/18 00:32:17;;;;;;;31.33;21.70;;;;;;;;;;525098;28;1834;-77
2023/11/18 00:32:33;;;;;;;29.97;21.03;;;;;;;;;;527134;28;874;-77
2023/11/18 00:32:48;;;;;;;29.75;21.40;;;;;;;;;;527704;28;798;-77
2023/11/18 00:33:03;;;;;;;31.17;22.20;;;;;;;;;;528632;28;885;-76
2023/11/18 00:33:18;;;;;;;32.43;22.77;;;;;;;;;;528597;27;1213;-77
2023/11/18 00:33:34;;;;;;;34.13;23.10;;;;;;;;;;525364;28;1377;-77
2023/11/18 00:33:49;;;;;;;35.20;23.20;;;;;;;;;;524407;28;1377;-77
2023/11/18 00:34:04;;;;;;;36.80;24.00;;;;;;;;;;526193;28;791;-77
2023/11/18 00:34:19;;;;;;;36.57;24.27;;;;;;;;;;526172;28;1210;-77
2023/11/18 00:34:35;;;;;;;36.20;24.05;;;;;;;;;;524092;28;1167;-77
2023/11/18 00:34:50;;;;;;;36.13;23.90;;;;;;;;;;524207;28;960;-77
2023/11/18 00:35:06;;;;;;;34.73;23.63;;;;;;;;;;524000;28;1103;-77
2023/11/18 00:35:21;;;;;;;34.60;23.77;;;;;;;;;;524264;28;863;-77
2023/11/18 00:35:37;;;;;;;35.20;23.87;;;;;;;;;;524275;28;886;-77
2023/11/18 00:35:52;;;;;;;34.90;23.75;;;;;;;;;;524224;28;948;-77
2023/11/18 00:36:08;;;;;;;35.43;23.80;;;;;;;;;;524198;28;1123;-77
2023/11/18 00:36:23;;;;;;;36.90;23.92;;;;;;;;;;526748;28;861;-77
2023/11/18 00:36:39;;;;;;;36.75;23.83;;;;;;;;;;528550;28;822;-77
2023/11/18 00:36:54;;;;;;;35.77;23.70;;;;;;;;;;528614;28;893;-77
2023/11/18 00:37:09;;;;;;;35.37;23.50;;;;;;;;;;528421;28;1079;-77
2023/11/18 00:37:24;;;;;;;35.83;23.40;;;;;;;;;;526194;28;1140;-77
2023/11/18 00:37:40;;;;;;;34.13;22.55;;;;;;;;;;525759;28;1706;-76
2023/11/18 00:37:55;;;;;;;32.77;21.73;;;;;;;;;;524946;28;1842;-76
2023/11/18 00:38:11;;;;;;;33.28;21.92;;;;;;;;;;524740;28;1623;-77
2023/11/18 00:38:26;;;;;;;34.63;22.20;;;;;;;;;;526357;28;791;-77
2023/11/18 00:38:42;;;;;;;36.83;22.27;;;;;;;;;;524430;28;1843;-77
2023/11/18 00:38:57;;;;;;;36.00;22.73;;;;;;;;;;525244;28;981;-77
2023/11/18 00:39:13;;;;;;;34.53;23.13;;;;;;;;;;525105;28;1158;-77
2023/11/18 00:39:28;;;;;;;34.55;22.90;;;;;;;;;;526486;28;917;-77
2023/11/18 00:39:43;;;;;;;33.77;22.17;;;;;;;;;;523940;28;1922;-73
2023/11/18 00:39:59;;;;;;;32.60;21.83;;;;;;;;;;524287;28;803;-74
2023/11/18 00:40:16;;;;;;;30.83;20.90;;;;;;;;;;524200;28;1187;-74
2023/11/18 00:40:32;;;;;;;28.48;19.77;;;;;;;;;;524097;28;901;-73
2023/11/18 00:40:47;;;;;;;28.23;19.67;;;;;;;;;;524945;28;791;-74
2023/11/18 00:41:02;;;;;;;25.67;18.73;;;;;;;;;;526337;28;1012;-73
2023/11/18 00:41:18;;;;;;;25.98;19.00;;;;;;;;;;524335;28;1291;-74
2023/11/18 00:41:33;;;;;;;27.93;19.87;;;;;;;;;;522076;28;1323;-73
2023/11/18 00:41:48;;;;;;;28.77;20.37;;;;;;;;;;522213;28;835;-73
2023/11/18 00:42:05;;;;;;;28.05;20.58;;;;;;;;;;522564;28;854;-73
2023/11/18 00:42:20;;;;;;;28.30;20.55;;;;;;;;;;521976;28;933;-73
2023/11/18 00:42:36;;;;;;;31.63;21.48;;;;;;;;;;519977;28;1349;-73
2023/11/18 00:42:51;;;;;;;31.33;21.23;;;;;;;;;;517996;28;1240;-73
2023/11/18 00:43:08;;;;;;;28.53;20.37;;;;;;;;;;518372;28;1171;-73
2023/11/18 00:43:23;;;;;;;27.77;20.13;;;;;;;;;;522725;28;930;-73
2023/11/18 00:43:38;;;;;;;28.20;20.13;;;;;;;;;;523737;28;1094;-73
2023/11/18 00:43:54;;;;;;;28.03;20.27;;;;;;;;;;524198;28;977;-74
2023/11/18 00:44:09;;;;;;;27.83;20.43;;;;;;;;;;524075;28;1067;-74
2023/11/18 00:44:25;;;;;;;26.83;20.30;;;;;;;;;;524492;28;819;-73
2023/11/18 00:44:41;;;;;;;28.03;20.33;;;;;;;;;;526850;28;858;-73
2023/11/18 00:44:57;;;;;;;30.70;21.23;;;;;;;;;;528372;28;823;-73
2023/11/18 00:45:12;;;;;;;33.63;22.50;;;;;;;;;;528378;28;1075;-73
2023/11/18 00:45:28;;;;;;;34.25;23.00;;;;;;;;;;526187;28;1300;-73
2023/11/18 00:45:44;;;;;;;33.45;22.50;;;;;;;;;;526341;28;945;-73
2023/11/18 00:45:59;;;;;;;34.77;22.60;;;;;;;;;;526181;28;784;-73
2023/11/18 00:46:15;;;;;;;35.78;22.92;;;;;;;;;;523293;28;1781;-73
2023/11/18 00:46:30;;;;;;;34.95;22.95;;;;;;;;;;523942;28;1146;-73
2023/11/18 00:46:46;;;;;;;31.63;21.60;;;;;;;;;;521928;28;1584;-73
2023/11/18 00:47:02;;;;;;;29.83;21.00;;;;;;;;;;522092;28;1222;-73
2023/11/18 00:47:18;;;;;;;32.10;22.13;;;;;;;;;;522291;28;1104;-73
2023/11/18 00:47:33;;;;;;;33.40;22.45;;;;;;;;;;524251;28;882;-73
2023/11/18 00:47:48;;;;;;;33.47;22.20;;;;;;;;;;524167;28;965;-73
2023/11/18 00:48:05;;;;;;;33.03;22.23;;;;;;;;;;524730;28;893;-73
2023/11/18 00:48:20;;;;;;;34.05;22.65;;;;;;;;;;523198;28;1360;-73
2023/11/18 00:48:35;;;;;;;33.58;22.23;;;;;;;;;;524145;28;994;-74
2023/11/18 00:48:50;;;;;;;32.93;21.43;;;;;;;;;;525684;28;846;-74
2023/11/18 00:49:06;;;;;;;33.00;21.67;;;;;;;;;;524615;28;1551;-73
2023/11/18 00:49:21;;;;;;;32.33;21.63;;;;;;;;;;522451;28;1306;-73
2023/11/18 00:49:37;;;;;;;32.67;22.00;;;;;;;;;;522126;28;783;-74
2023/11/18 00:49:52;;;;;;;33.07;22.33;;;;;;;;;;522070;28;835;-73
2023/11/18 00:50:08;;;;;;;33.17;21.98;;;;;;;;;;523187;28;1390;-73
2023/11/18 00:50:23;;;;;;;35.33;22.30;;;;;;;;;;526285;28;1134;-74
2023/11/18 00:50:38;;;;;;;36.13;22.57;;;;;;;;;;528257;28;782;-74
2023/11/18 00:50:54;;;;;;;33.63;21.70;;;;;;;;;;528414;28;881;-73
2023/11/18 00:51:09;;;;;;;32.90;21.67;;;;;;;;;;527947;28;1067;-74
2023/11/18 00:51:24;;;;;;;33.77;21.70;;;;;;;;;;525550;28;1282;-73
2023/11/18 00:51:41;;;;;;;33.83;21.33;;;;;;;;;;521900;28;1332;-73
2023/11/18 00:51:56;;;;;;;35.05;21.90;;;;;;;;;;522226;28;882;-73
2023/11/18 00:52:11;;;;;;;35.70;22.25;;;;;;;;;;522442;28;2381;-73
2023/11/18 00:52:27;;;;;;;34.43;22.33;;;;;;;;;;523634;28;2116;-73
2023/11/18 00:52:42;;;;;;;32.35;21.67;;;;;;;;;;523456;28;1876;-73
2023/11/18 00:52:57;;;;;;;32.53;21.43;;;;;;;;;;522497;28;1143;-73
2023/11/18 00:53:13;;;;;;;33.60;21.50;;;;;;;;;;522849;28;1072;-73
2023/11/18 00:53:29;;;;;;;33.10;21.38;;;;;;;;;;523543;28;1885;-73
2023/11/18 00:53:44;;;;;;;32.63;21.30;;;;;;;;;;524948;28;752;-73
2023/11/18 00:54:05;;;;;;;34.40;21.63;;;;;;;;;;525248;28;855;-74
2023/11/18 00:54:20;;;;;;;34.08;21.67;;;;;;;;;;525312;28;965;-73
2023/11/18 00:54:36;;;;;;;34.60;21.97;;;;;;;;;;526590;28;791;-74
2023/11/18 00:54:51;;;;;;;36.28;22.88;;;;;;;;;;528152;28;834;-73
2023/11/18 00:55:12;;;;;;;35.80;22.50;;;;;;;;;;526379;28;1163;-73
2023/11/18 00:55:28;;;;;;;35.38;22.40;;;;;;;;;;528298;28;945;-73
2023/11/18 00:55:43;;;;;;;34.85;22.40;;;;;;;;;;526425;28;905;-73
2023/11/18 00:55:58;;;;;;;33.17;21.97;;;;;;;;;;523958;28;1424;-73
2023/11/18 00:56:17;;;;;;;34.03;22.20;;;;;;;;;;524018;28;1040;-73
2023/11/18 00:56:33;;;;;;;34.38;22.33;;;;;;;;;;524242;28;1000;-73
2023/11/18 00:56:48;;;;;;;33.63;22.15;;;;;;;;;;524085;28;799;-73
2023/11/18 00:57:04;;;;;;;33.42;22.23;;;;;;;;;;523475;28;1349;-73
2023/11/18 00:57:19;;;;;;;35.17;22.97;;;;;;;;;;524086;28;1388;-74
2023/11/18 00:57:35;;;;;;;35.37;22.87;;;;;;;;;;524155;28;878;-73
2023/11/18 00:57:50;;;;;;;34.53;22.33;;;;;;;;;;523782;28;2671;-73
2023/11/18 00:58:05;;;;;;;34.80;22.40;;;;;;;;;;523834;28;1931;-73
2023/11/18 00:58:21;;;;;;;35.87;23.07;;;;;;;;;;524065;28;1933;-73
2023/11/18 00:58:39;;;;;;;35.77;23.43;;;;;;;;;;523725;28;878;-73
2023/11/18 00:58:55;;;;;;;35.08;22.40;;;;;;;;;;522722;28;858;-73
2023/11/18 00:59:10;;;;;;;35.20;22.17;;;;;;;;;;522544;28;1276;-73
2023/11/18 00:59:26;;;;;;;35.00;22.10;;;;;;;;;;524240;28;795;-73
2023/11/18 00:59:43;;;;;;;33.85;21.13;;;;;;;;;;524154;28;1902;-74
2023/11/18 00:59:58;;;;;;;34.53;21.30;;;;;;;;;;525064;28;882;-73
2023/11/18 01:00:15;;;;;;;33.83;20.93;;;;;;;;;;524000;28;1358;-73
2023/11/18 01:00:31;;;;;;;35.35;21.80;;;;;;;;;;522027;28;1254;-73
2023/11/18 01:00:46;;;;;;;36.13;21.97;;;;;;;;;;522003;28;1541;-73
2023/11/18 01:01:01;;;;;;;35.87;22.23;;;;;;;;;;522691;28;795;-73
2023/11/18 01:01:17;;;;;;;34.13;21.95;;;;;;;;;;521830;28;1076;-73
2023/11/18 01:01:33;;;;;;;32.78;21.38;;;;;;;;;;521985;28;882;-74
2023/11/18 01:01:49;;;;;;;34.33;22.00;;;;;;;;;;522125;28;779;-73
2023/11/18 01:02:04;;;;;;;32.83;21.20;;;;;;;;;;520019;28;1362;-73
2023/11/18 01:02:20;;;;;;;29.75;19.80;;;;;;;;;;520220;28;915;-73
2023/11/18 01:02:35;;;;;;;30.00;20.37;;;;;;;;;;521176;28;2045;-73
2023/11/18 01:02:51;;;;;;;34.10;21.97;;;;;;;;;;524075;28;915;-73
2023/11/18 01:03:06;;;;;;;35.97;22.77;;;;;;;;;;523967;28;937;-73
2023/11/18 01:03:21;;;;;;;35.07;22.67;;;;;;;;;;524072;28;1279;-73
2023/11/18 01:03:37;;;;;;;34.83;22.40;;;;;;;;;;523671;28;855;-74
2023/11/18 01:03:53;;;;;;;35.03;22.60;;;;;;;;;;524025;28;878;-74
2023/11/18 01:04:09;;;;;;;36.53;23.40;;;;;;;;;;524155;28;1099;-73
2023/11/18 01:04:25;;;;;;;38.70;23.70;;;;;;;;;;525589;28;1153;-74
2023/11/18 01:04:40;;;;;;;40.17;24.55;;;;;;;;;;526208;28;905;-74
2023/11/18 01:04:56;;;;;;;40.60;25.27;;;;;;;;;;526231;28;890;-73
2023/11/18 01:05:11;;;;;;;43.43;26.20;;;;;;;;;;526499;28;1015;-74
2023/11/18 01:05:26;;;;;;;44.20;26.17;;;;;;;;;;528471;28;828;-74
2023/11/18 01:05:41;;;;;;;41.42;24.73;;;;;;;;;;526007;28;1584;-73
2023/11/18 01:05:57;;;;;;;40.17;24.63;;;;;;;;;;526278;28;1149;-74
2023/11/18 01:06:13;;;;;;;37.73;24.37;;;;;;;;;;526100;28;1052;-74
2023/11/18 01:06:28;;;;;;;37.10;24.00;;;;;;;;;;526179;28;818;-73
2023/11/18 01:06:43;;;;;;;36.25;23.33;;;;;;;;;;526183;28;830;-73
2023/11/18 01:06:59;;;;;;;34.97;23.50;;;;;;;;;;526162;28;972;-73
2023/11/18 01:07:14;;;;;;;35.70;23.60;;;;;;;;;;525973;28;1224;-73
2023/11/18 01:07:29;;;;;;;35.87;23.30;;;;;;;;;;526460;28;803;-73
2023/11/18 01:07:44;;;;;;;35.05;23.52;;;;;;;;;;528359;28;1602;-73
2023/11/18 01:08:00;;;;;;;34.70;23.40;;;;;;;;;;526822;28;994;-73
2023/11/18 01:08:15;;;;;;;34.23;23.50;;;;;;;;;;527600;28;1102;-73
2023/11/18 01:08:30;;;;;;;34.50;23.17;;;;;;;;;;528360;28;885;-73
2023/11/18 01:08:46;;;;;;;37.43;23.53;;;;;;;;;;528145;28;865;-73
2023/11/18 01:09:02;;;;;;;37.40;23.83;;;;;;;;;;523854;28;1598;-73
2023/11/18 01:09:17;;;;;;;34.97;23.43;;;;;;;;;;525938;28;2070;-73
2023/11/18 01:09:38;;;;;;;35.92;23.80;;;;;;;;;;526177;28;886;-73
2023/11/18 01:09:53;;;;;;;35.92;23.60;;;;;;;;;;524007;28;1270;-74
2023/11/18 01:10:13;;;;;;;33.67;23.33;;;;;;;;;;523865;28;1186;-73
2023/11/18 01:10:29;;;;;;;34.65;22.90;;;;;;;;;;524075;28;968;-73
2023/11/18 01:10:44;;;;;;;33.45;22.13;;;;;;;;;;524040;28;867;-73
2023/11/18 01:11:00;;;;;;;31.60;21.50;;;;;;;;;;525499;28;1621;-74
2023/11/18 01:11:19;;;;;;;31.03;21.60;;;;;;;;;;525038;28;1827;-75
2023/11/18 01:11:35;;;;;;;31.38;21.65;;;;;;;;;;523763;28;1406;-73
2023/11/18 01:11:51;;;;;;;32.17;21.27;;;;;;;;;;524102;28;788;-73
2023/11/18 01:12:09;;;;;;;35.17;21.37;;;;;;;;;;525499;28;984;-73
2023/11/18 01:12:25;;;;;;;34.38;22.15;;;;;;;;;;526245;28;882;-73
2023/11/18 01:12:41;;;;;;;33.43;22.30;;;;;;;;;;524521;28;2865;-73
2023/11/18 01:12:57;;;;;;;33.80;22.15;;;;;;;;;;526201;28;1856;-73
2023/11/18 01:13:13;;;;;;;33.42;22.15;;;;;;;;;;523817;28;1274;-73
2023/11/18 01:13:28;;;;;;;33.43;22.03;;;;;;;;;;521890;28;1155;-74
2023/11/18 01:13:43;;;;;;;34.42;22.42;;;;;;;;;;521548;28;803;-73
2023/11/18 01:13:58;;;;;;;34.73;22.90;;;;;;;;;;522031;28;804;-73
2023/11/18 01:14:14;;;;;;;35.77;24.50;;;;;;;;;;523169;28;1114;-73
2023/11/18 01:14:29;;;;;;;35.00;24.57;;;;;;;;;;521737;28;1309;-73
2023/11/18 01:14:44;;;;;;;33.03;23.10;;;;;;;;;;522033;28;1093;-73
2023/11/18 01:15:00;;;;;;;34.23;22.87;;;;;;;;;;522012;28;1283;-73
2023/11/18 01:15:15;;;;;;;33.30;22.50;;;;;;;;;;521887;28;1320;-73
2023/11/18 01:15:31;;;;;;;33.00;22.63;;;;;;;;;;521979;28;783;-73
2023/11/18 01:15:48;;;;;;;34.05;22.80;;;;;;;;;;521952;28;906;-74
2023/11/18 01:16:04;;;;;;;34.25;22.90;;;;;;;;;;522148;28;905;-73
2023/11/18 01:16:20;;;;;;;34.70;23.02;;;;;;;;;;522423;28;1346;-73
2023/11/18 01:16:35;;;;;;;37.33;23.50;;;;;;;;;;523985;28;906;-73
2023/11/18 01:16:50;;;;;;;37.40;23.70;;;;;;;;;;522643;28;1124;-73
2023/11/18 01:17:06;;;;;;;36.77;23.77;;;;;;;;;;524649;28;1056;-73
2023/11/18 01:17:22;;;;;;;35.53;23.15;;;;;;;;;;526214;28;890;-73
2023/11/18 01:17:38;;;;;;;34.40;22.75;;;;;;;;;;526199;28;850;-73
2023/11/18 01:17:53;;;;;;;35.15;22.83;;;;;;;;;;526086;28;954;-73
2023/11/18 01:18:08;;;;;;;36.40;22.87;;;;;;;;;;526071;28;1083;-73
2023/11/18 01:18:24;;;;;;;37.07;23.23;;;;;;;;;;526256;28;830;-73
2023/11/18 01:18:39;;;;;;;36.03;22.77;;;;;;;;;;526167;28;905;-73
2023/11/18 01:18:54;;;;;;;35.47;22.60;;;;;;;;;;528415;28;819;-73
2023/11/18 01:19:10;;;;;;;35.70;23.13;;;;;;;;;;527201;28;1981;-73
2023/11/18 01:19:25;;;;;;;38.07;24.17;;;;;;;;;;524927;28;1162;-73
2023/11/18 01:19:40;;;;;;;38.77;24.33;;;;;;;;;;524049;28;1894;-73
2023/11/18 01:19:56;;;;;;;36.67;23.27;;;;;;;;;;523902;28;787;-73
2023/11/18 01:20:13;;;;;;;35.65;22.70;;;;;;;;;;523945;28;1089;-74
2023/11/18 01:20:28;;;;;;;34.70;22.27;;;;;;;;;;524108;28;937;-73
2023/11/18 01:20:43;;;;;;;32.33;21.90;;;;;;;;;;523814;28;1497;-74
2023/11/18 01:20:59;;;;;;;30.98;21.13;;;;;;;;;;524082;28;1123;-74
2023/11/18 01:21:17;;;;;;;32.47;20.80;;;;;;;;;;523975;28;1095;-74
2023/11/18 01:21:32;;;;;;;32.70;21.33;;;;;;;;;;524955;28;867;-74
2023/11/18 01:21:47;;;;;;;31.07;21.00;;;;;;;;;;526214;28;882;-73
2023/11/18 01:22:05;;;;;;;30.20;20.17;;;;;;;;;;526118;28;873;-73
2023/11/18 01:22:21;;;;;;;30.95;20.17;;;;;;;;;;524093;28;866;-73
2023/11/18 01:22:37;;;;;;;31.23;20.47;;;;;;;;;;525008;28;950;-74
2023/11/18 01:22:53;;;;;;;29.92;20.20;;;;;;;;;;526428;28;822;-73
2023/11/18 01:23:08;;;;;;;29.43;20.20;;;;;;;;;;526704;28;878;-74
2023/11/18 01:23:23;;;;;;;29.80;20.33;;;;;;;;;;528305;28;926;-73
2023/11/18 01:23:44;;;;;;;30.58;20.05;;;;;;;;;;527373;28;1836;-73
2023/11/18 01:23:59;;;;;;;28.75;19.65;;;;;;;;;;526750;28;1792;-73
2023/11/18 01:24:16;;;;;;;29.37;19.73;;;;;;;;;;525307;28;1666;-73
2023/11/18 01:24:32;;;;;;;29.17;19.88;;;;;;;;;;526132;28;886;-73
2023/11/18 01:24:47;;;;;;;29.50;19.70;;;;;;;;;;526163;28;906;-73
2023/11/18 01:25:04;;;;;;;29.38;19.45;;;;;;;;;;526224;28;806;-74
2023/11/18 01:25:20;;;;;;;29.58;19.83;;;;;;;;;;525991;28;1238;-73
2023/11/18 01:25:35;;;;;;;32.20;20.50;;;;;;;;;;526248;28;1027;-73
2023/11/18 01:25:51;;;;;;;32.57;20.17;;;;;;;;;;524111;28;1170;-74
2023/11/18 01:26:06;;;;;;;32.42;20.35;;;;;;;;;;524665;28;1079;-74
2023/11/18 01:26:23;;;;;;;32.10;20.90;;;;;;;;;;528300;28;985;-73
2023/11/18 01:26:38;;;;;;;31.15;20.85;;;;;;;;;;528339;28;941;-73
2023/11/18 01:26:53;;;;;;;30.67;20.13;;;;;;;;;;528258;28;973;-74
2023/11/18 01:27:09;;;;;;;29.13;19.40;;;;;;;;;;527532;28;1300;-73
2023/11/18 01:27:25;;;;;;;27.40;18.73;;;;;;;;;;523511;28;1793;-74
2023/11/18 01:27:40;;;;;;;28.20;19.10;;;;;;;;;;524109;28;803;-73
2023/11/18 01:27:55;;;;;;;29.30;19.73;;;;;;;;;;525969;28;1096;-73
2023/11/18 01:28:10;;;;;;;29.95;19.67;;;;;;;;;;524590;28;1076;-73
2023/11/18 01:28:28;;;;;;;29.87;19.43;;;;;;;;;;526255;28;810;-73
2023/11/18 01:28:45;;;;;;;28.02;18.80;;;;;;;;;;523471;28;1274;-73
2023/11/18 01:29:00;;;;;;;28.38;18.88;;;;;;;;;;524110;28;1529;-73
2023/11/18 01:29:15;;;;;;;27.10;18.37;;;;;;;;;;523197;28;1111;-73
2023/11/18 01:29:31;;;;;;;26.58;17.88;;;;;;;;;;524011;28;1033;-74
2023/11/18 01:29:49;;;;;;;26.57;17.53;;;;;;;;;;522011;28;1176;-73
2023/11/18 01:30:05;;;;;;;26.83;17.77;;;;;;;;;;522163;28;879;-73
2023/11/18 01:30:20;;;;;;;27.88;18.48;;;;;;;;;;521321;28;1313;-73
2023/11/18 01:30:36;;;;;;;26.10;18.05;;;;;;;;;;522093;28;1194;-73
2023/11/18 01:30:51;;;;;;;25.63;17.80;;;;;;;;;;521871;28;1307;-74
2023/11/18 01:31:09;;;;;;;26.15;17.92;;;;;;;;;;521947;28;1033;-73
2023/11/18 01:31:24;;;;;;;24.45;17.45;;;;;;;;;;519853;28;1231;-73
2023/11/18 01:31:41;;;;;;;24.07;16.83;;;;;;;;;;520789;28;1220;-74
2023/11/18 01:31:56;;;;;;;24.55;16.70;;;;;;;;;;521953;28;977;-73
2023/11/18 01:32:12;;;;;;;26.33;17.83;;;;;;;;;;522571;28;1107;-73
2023/11/18 01:32:29;;;;;;;24.95;17.60;;;;;;;;;;523922;28;914;-73
2023/11/18 01:32:44;;;;;;;22.10;15.80;;;;;;;;;;523094;28;1774;-74
2023/11/18 01:33:01;;;;;;;23.15;16.27;;;;;;;;;;524027;28;898;-73
2023/11/18 01:33:16;;;;;;;24.55;17.63;;;;;;;;;;522503;28;1164;-73
2023/11/18 01:33:32;;;;;;;25.77;18.40;;;;;;;;;;521740;28;1295;-73
2023/11/18 01:33:50;;;;;;;27.33;19.58;;;;;;;;;;519519;28;1650;-73
2023/11/18 01:34:05;;;;;;;27.02;19.80;;;;;;;;;;519933;28;1029;-74
2023/11/18 01:34:21;;;;;;;26.38;19.15;;;;;;;;;;519871;28;851;-73
2023/11/18 01:34:39;;;;;;;26.63;19.63;;;;;;;;;;520729;28;916;-73
2023/11/18 01:34:56;;;;;;;26.23;19.38;;;;;;;;;;519866;28;973;-73
2023/11/18 01:35:12;;;;;;;26.00;18.95;;;;;;;;;;521853;28;1107;-74